Time;durP1;ratioP1;P1;durP2;ratioP2;P2;SDS_P1;SDS_P2;PMS_P1;PMS_P2;Temp;Humidity;BMP_temperature;BMP_pressure;BME280_temperature;BME280_humidity;BME280_pressure;Samples;Min_cycle;Max_cycle;Signal;HPM_P1;HPM_P2
2022/08/08 00:02:56;;;;;;;5.95;3.20;;;15.30;99.90;;;;;;5114254;28;20051;-80
2022/08/08 00:05:32;;;;;;;6.72;3.33;;;15.30;99.90;;;;;;5113837;28;20138;-79
2022/08/08 00:08:16;;;;;;;6.05;3.13;;;15.20;99.90;;;;;;5114253;28;20092;-80
2022/08/08 00:11:00;;;;;;;4.78;2.97;;;15.30;99.90;;;;;;5114389;28;20556;-81
2022/08/08 00:13:49;;;;;;;5.03;3.08;;;15.20;99.90;;;;;;5114326;28;20047;-80
2022/08/08 00:16:46;;;;;;;4.97;3.28;;;15.10;99.90;;;;;;5114935;28;20058;-80
2022/08/08 00:19:34;;;;;;;6.47;3.30;;;15.10;99.90;;;;;;5114567;27;20048;-80
2022/08/08 00:22:09;;;;;;;7.97;3.25;;;15.00;99.90;;;;;;5113877;28;20040;-80
2022/08/08 00:25:03;;;;;;;5.07;3.20;;;15.00;99.90;;;;;;5114465;28;20046;-80
2022/08/08 00:27:30;;;;;;;5.53;3.30;;;15.00;99.90;;;;;;5112121;28;20063;-80
2022/08/08 00:30:08;;;;;;;5.95;3.30;;;15.00;99.90;;;;;;5113412;28;20039;-80
2022/08/08 00:32:46;;;;;;;6.90;3.35;;;14.90;99.90;;;;;;5114627;28;20054;-80
2022/08/08 00:35:33;;;;;;;6.38;3.55;;;14.90;99.90;;;;;;5113819;28;20051;-81
2022/08/08 00:38:28;;;;;;;5.22;3.47;;;14.90;99.90;;;;;;5113040;28;20057;-80
2022/08/08 00:41:17;;;;;;;5.93;2.95;;;14.90;99.90;;;;;;5113908;28;20435;-80
2022/08/08 00:44:12;;;;;;;5.38;3.35;;;14.80;99.90;;;;;;5113381;28;20502;-80
2022/08/08 00:46:50;;;;;;;6.07;3.17;;;14.80;99.90;;;;;;5113719;28;20090;-80
2022/08/08 00:50:01;;;;;;;7.10;3.17;;;14.80;99.90;;;;;;5114570;28;20079;-80
2022/08/08 00:53:07;;;;;;;6.60;3.38;;;14.70;99.90;;;;;;5114301;28;20043;-80
2022/08/08 00:56:11;;;;;;;5.10;3.13;;;14.70;99.90;;;;;;5113402;28;20131;-80
2022/08/08 00:58:52;;;;;;;6.15;3.30;;;14.60;99.90;;;;;;5089756;28;20093;-80
2022/08/08 01:01:41;;;;;;;4.43;3.22;;;14.50;99.90;;;;;;5114073;28;20126;-80
2022/08/08 01:04:39;;;;;;;4.35;3.13;;;14.50;99.90;;;;;;5113995;28;20094;-81
2022/08/08 01:07:42;;;;;;;5.35;3.10;;;14.50;99.90;;;;;;5096078;28;20100;-80
2022/08/08 01:10:33;;;;;;;5.25;2.70;;;14.40;99.90;;;;;;5113980;28;20044;-81
2022/08/08 01:13:20;;;;;;;4.82;3.17;;;14.40;99.90;;;;;;5114125;28;20467;-81
2022/08/08 01:15:54;;;;;;;7.28;3.40;;;14.40;99.90;;;;;;5117201;28;20044;-81
2022/08/08 01:18:57;;;;;;;6.38;3.15;;;14.40;99.90;;;;;;5118600;28;20052;-80
2022/08/08 01:22:13;;;;;;;6.35;3.42;;;14.30;99.90;;;;;;5118165;28;20051;-80
2022/08/08 01:25:11;;;;;;;4.38;3.35;;;14.30;99.90;;;;;;5118007;28;20134;-80
2022/08/08 01:27:52;;;;;;;5.95;3.42;;;14.30;99.90;;;;;;5117346;28;20193;-80
2022/08/08 01:30:55;;;;;;;4.38;3.20;;;14.20;99.90;;;;;;5116734;28;20047;-80
2022/08/08 01:33:48;;;;;;;5.93;3.20;;;14.20;99.90;;;;;;5117828;28;20039;-80
2022/08/08 01:36:42;;;;;;;4.95;3.40;;;14.20;99.90;;;;;;5116560;28;20049;-79
2022/08/08 01:39:19;;;;;;;5.40;3.22;;;14.20;99.90;;;;;;5117672;28;20495;-79
2022/08/08 01:42:10;;;;;;;4.20;3.28;;;14.10;99.90;;;;;;5118000;28;20098;-79
2022/08/08 01:44:58;;;;;;;5.10;3.30;;;14.10;99.90;;;;;;5116499;28;20044;-79
2022/08/08 01:47:42;;;;;;;5.83;3.77;;;14.10;99.90;;;;;;5118155;28;20395;-80
2022/08/08 01:50:45;;;;;;;7.15;3.72;;;14.00;99.90;;;;;;5117473;28;20131;-80
2022/08/08 01:53:35;;;;;;;5.00;2.88;;;13.90;99.90;;;;;;5116514;28;20445;-80
2022/08/08 01:56:42;;;;;;;4.95;3.42;;;13.90;99.90;;;;;;5117499;28;20035;-80
2022/08/08 01:59:26;;;;;;;4.53;3.28;;;13.90;99.90;;;;;;5117527;28;20040;-80
2022/08/08 02:02:03;;;;;;;5.15;3.47;;;13.80;99.90;;;;;;5116276;28;20047;-80
2022/08/08 02:04:45;;;;;;;4.00;2.95;;;13.80;99.90;;;;;;5117466;28;20067;-80
2022/08/08 02:07:45;;;;;;;7.05;3.50;;;13.80;99.90;;;;;;5099396;28;20047;-81
2022/08/08 02:10:29;;;;;;;5.68;4.07;;;13.70;99.90;;;;;;5116210;28;20082;-80
2022/08/08 02:13:00;;;;;;;5.97;4.47;;;13.70;99.90;;;;;;5116194;28;20039;-81
2022/08/08 02:15:34;;;;;;;7.78;4.05;;;13.70;99.90;;;;;;5117362;28;20054;-81
2022/08/08 02:18:17;;;;;;;7.40;4.75;;;13.70;99.90;;;;;;5116160;28;20051;-80
2022/08/08 02:23:46;;;;;;;7.05;4.53;;;13.60;99.90;;;;;;5116271;28;20048;-79
2022/08/08 02:26:23;;;;;;;7.03;5.07;;;13.60;99.90;;;;;;5116010;28;20063;-79
2022/08/08 02:28:51;;;;;;;7.13;5.32;;;13.60;99.90;;;;;;5115645;28;20088;-80
2022/08/08 02:32:03;;;;;;;9.70;5.22;;;13.60;99.90;;;;;;5115844;28;20048;-79
2022/08/08 02:34:57;;;;;;;6.60;5.60;;;13.60;99.90;;;;;;5115814;28;20070;-79
2022/08/08 02:37:34;;;;;;;8.25;5.13;;;13.50;99.90;;;;;;5116027;28;20135;-79
2022/08/08 02:40:15;;;;;;;7.72;5.78;;;13.50;99.90;;;;;;5116548;28;20055;-79
2022/08/08 02:43:03;;;;;;;7.63;5.97;;;13.50;99.90;;;;;;5116521;28;20035;-79
2022/08/08 02:45:56;;;;;;;7.75;5.45;;;13.50;99.90;;;;;;5116499;28;20050;-79
2022/08/08 02:48:31;;;;;;;7.15;5.75;;;13.50;99.90;;;;;;5115568;28;20043;-79
2022/08/08 02:51:16;;;;;;;6.65;5.68;;;13.50;99.90;;;;;;5116557;28;20507;-79
2022/08/08 02:54:06;;;;;;;7.47;5.15;;;13.50;99.90;;;;;;5116346;28;20047;-79
2022/08/08 02:56:59;;;;;;;6.95;5.13;;;13.50;99.90;;;;;;5116274;28;20040;-79
2022/08/08 03:00:05;;;;;;;6.15;5.22;;;13.40;99.90;;;;;;5080462;28;20135;-79
2022/08/08 03:03:05;;;;;;;6.72;5.13;;;13.40;99.90;;;;;;5116557;28;20040;-79
2022/08/08 03:05:47;;;;;;;6.10;4.93;;;13.40;99.90;;;;;;5116062;28;20047;-80
2022/08/08 03:08:39;;;;;;;5.32;4.72;;;13.30;99.90;;;;;;5116129;28;20040;-79
2022/08/08 03:11:18;;;;;;;5.18;4.68;;;13.30;99.90;;;;;;5079131;28;20055;-80
2022/08/08 03:14:13;;;;;;;5.55;4.63;;;13.30;99.90;;;;;;5114852;28;20044;-79
2022/08/08 03:16:52;;;;;;;5.68;4.25;;;13.20;99.90;;;;;;5104801;28;20052;-79
2022/08/08 03:19:56;;;;;;;6.38;4.43;;;13.20;99.90;;;;;;5098680;28;20043;-79
2022/08/08 03:22:21;;;;;;;5.38;4.88;;;13.10;99.90;;;;;;5115732;28;20043;-79
2022/08/08 03:24:50;;;;;;;5.03;4.53;;;13.10;99.90;;;;;;5114713;28;20502;-79
2022/08/08 03:27:19;;;;;;;5.88;4.70;;;13.10;99.90;;;;;;5115283;28;20126;-80
2022/08/08 03:29:52;;;;;;;5.20;4.70;;;13.10;99.90;;;;;;5097855;28;20039;-79
2022/08/08 03:35:04;;;;;;;6.07;5.18;;;13.10;99.90;;;;;;5114558;28;20047;-80
2022/08/08 03:37:33;;;;;;;5.93;5.05;;;13.00;99.90;;;;;;5114233;28;20043;-80
2022/08/08 03:40:04;;;;;;;5.03;4.53;;;13.00;99.90;;;;;;5113985;28;20048;-80
2022/08/08 03:42:30;;;;;;;5.80;4.57;;;13.00;99.90;;;;;;5115865;28;20052;-80
2022/08/08 03:44:55;;;;;;;6.85;5.03;;;13.00;99.90;;;;;;5097456;28;20083;-79
2022/08/08 03:47:21;;;;;;;4.82;4.18;;;12.90;99.90;;;;;;5115112;28;20120;-80
2022/08/08 03:49:48;;;;;;;6.20;4.90;;;12.90;99.90;;;;;;5115195;28;20039;-79
2022/08/08 03:52:14;;;;;;;5.28;4.57;;;12.90;99.90;;;;;;5115167;28;20039;-80
2022/08/08 03:54:44;;;;;;;7.63;4.85;;;12.90;99.90;;;;;;5114836;28;20502;-80
2022/08/08 03:57:15;;;;;;;5.57;4.93;;;12.90;99.90;;;;;;5114024;28;20122;-80
2022/08/08 03:59:41;;;;;;;5.88;5.00;;;13.00;99.90;;;;;;5114980;28;20051;-80
2022/08/08 04:02:18;;;;;;;5.73;4.83;;;12.90;99.90;;;;;;5114902;28;20039;-79
2022/08/08 04:04:45;;;;;;;6.63;5.40;;;12.90;99.90;;;;;;5114806;28;20491;-80
2022/08/08 04:07:11;;;;;;;5.13;4.30;;;12.90;99.90;;;;;;5114823;28;20043;-80
2022/08/08 04:09:37;;;;;;;5.72;5.00;;;12.80;99.90;;;;;;5114775;28;20104;-80
2022/08/08 04:12:03;;;;;;;6.15;4.85;;;12.80;99.90;;;;;;5114732;28;20086;-80
2022/08/08 04:14:29;;;;;;;7.43;4.95;;;12.80;99.90;;;;;;5113815;28;20047;-80
2022/08/08 04:16:55;;;;;;;5.32;4.82;;;12.80;99.90;;;;;;5113509;28;20089;-80
2022/08/08 04:19:21;;;;;;;4.68;4.10;;;12.80;99.90;;;;;;5113683;28;20039;-82
2022/08/08 04:21:46;;;;;;;5.88;4.80;;;12.80;99.90;;;;;;5113368;28;20039;-78
2022/08/08 04:24:12;;;;;;;6.00;4.85;;;12.80;99.90;;;;;;5113787;28;20154;-78
2022/08/08 04:26:38;;;;;;;5.82;4.20;;;12.80;99.90;;;;;;5114934;28;20047;-81
2022/08/08 04:29:03;;;;;;;5.03;4.20;;;12.90;99.90;;;;;;5114416;28;20086;-77
2022/08/08 04:31:29;;;;;;;5.88;4.22;;;12.90;99.90;;;;;;5114472;28;20468;-81
2022/08/08 04:33:54;;;;;;;5.27;4.60;;;12.90;99.90;;;;;;5114397;28;20051;-79
2022/08/08 04:36:20;;;;;;;5.43;4.93;;;13.00;99.90;;;;;;5114414;28;20364;-81
2022/08/08 04:38:46;;;;;;;6.20;4.45;;;13.00;99.90;;;;;;5114188;28;20039;-81
2022/08/08 04:41:11;;;;;;;5.70;5.03;;;13.10;99.90;;;;;;5113561;28;20047;-83
2022/08/08 04:43:37;;;;;;;7.20;4.72;;;13.20;99.90;;;;;;5114590;28;20492;-83
2022/08/08 04:46:04;;;;;;;5.23;4.53;;;13.20;99.90;;;;;;5113646;28;20046;-85
2022/08/08 04:48:30;;;;;;;6.22;4.90;;;13.30;99.90;;;;;;5112841;28;20119;-83
2022/08/08 04:50:55;;;;;;;6.17;4.90;;;13.30;99.90;;;;;;5113930;28;20075;-84
2022/08/08 04:53:21;;;;;;;5.32;4.38;;;13.40;99.90;;;;;;5114210;28;20039;-81
2022/08/08 04:55:47;;;;;;;7.07;4.13;;;13.40;99.90;;;;;;5113215;28;20498;-79
2022/08/08 04:58:14;;;;;;;7.93;4.75;;;13.50;99.90;;;;;;5113136;28;20488;-82
2022/08/08 05:00:40;;;;;;;5.68;4.68;;;13.50;99.90;;;;;;5113797;28;20506;-82
2022/08/08 05:03:06;;;;;;;5.57;4.63;;;13.40;99.90;;;;;;5114036;28;20082;-82
2022/08/08 05:05:32;;;;;;;5.88;5.07;;;13.50;99.90;;;;;;5113119;28;20074;-83
2022/08/08 05:07:58;;;;;;;6.47;4.37;;;13.50;99.90;;;;;;5114065;28;20072;-82
2022/08/08 05:10:28;;;;;;;6.15;4.63;;;13.50;99.90;;;;;;5113279;28;20043;-83
2022/08/08 05:12:55;;;;;;;6.15;4.88;;;13.60;99.90;;;;;;5113280;28;20127;-79
2022/08/08 05:15:20;;;;;;;5.25;4.45;;;13.60;99.90;;;;;;5113902;28;20125;-83
2022/08/08 05:17:46;;;;;;;5.47;4.40;;;13.60;99.90;;;;;;5113079;28;20060;-80
2022/08/08 05:20:11;;;;;;;6.13;4.38;;;13.60;99.90;;;;;;5112924;28;20089;-80
2022/08/08 05:22:37;;;;;;;5.78;4.45;;;13.60;99.90;;;;;;5113973;28;20411;-81
2022/08/08 05:25:03;;;;;;;7.35;5.05;;;13.60;99.90;;;;;;5112986;28;20044;-82
2022/08/08 05:27:29;;;;;;;5.28;4.05;;;13.70;99.90;;;;;;5113770;28;20044;-80
2022/08/08 05:29:55;;;;;;;4.68;4.03;;;13.70;99.90;;;;;;5112933;28;20383;-78
2022/08/08 05:32:20;;;;;;;7.60;4.18;;;13.70;99.90;;;;;;5112525;28;20169;-82
2022/08/08 05:34:48;;;;;;;7.00;3.90;;;13.80;99.90;;;;;;5113847;28;20079;-83
2022/08/08 05:37:26;;;;;;;5.75;4.05;;;13.80;99.90;;;;;;5113536;28;20048;-82
2022/08/08 05:39:52;;;;;;;;;;;13.80;99.90;;;;;;5111942;28;20544;-81
2022/08/08 05:42:21;;;;;;;6.53;3.72;;;13.90;99.90;;;;;;5112133;28;20298;-81
2022/08/08 05:44:48;;;;;;;6.32;4.40;;;14.00;99.90;;;;;;5111862;28;20105;-80
2022/08/08 05:47:15;;;;;;;5.38;3.72;;;14.20;99.90;;;;;;5113438;28;20122;-79
2022/08/08 05:49:46;;;;;;;5.38;3.65;;;14.00;99.90;;;;;;5113658;28;20040;-80
2022/08/08 05:52:12;;;;;;;6.47;3.83;;;14.30;99.90;;;;;;5112691;28;20054;-82
2022/08/08 05:54:38;;;;;;;6.67;3.87;;;14.20;99.90;;;;;;5113978;28;20048;-81
2022/08/08 05:57:09;;;;;;;6.43;4.20;;;14.20;99.90;;;;;;5113560;28;20837;-81
2022/08/08 05:59:37;;;;;;;6.88;4.03;;;14.30;99.90;;;;;;5113575;28;20568;-80
2022/08/08 06:03:08;;;;;;;6.47;4.03;;;14.40;99.90;;;;;;5115321;28;20039;-81
2022/08/08 06:04:56;;;;;;;7.80;4.30;;;14.50;99.90;;;;;;5116907;28;20058;-79
2022/08/08 06:07:22;;;;;;;6.13;3.92;;;14.70;99.90;;;;;;5117163;28;20503;-78
2022/08/08 06:09:49;;;;;;;6.73;3.80;;;14.80;99.90;;;;;;5116856;28;20491;-79
2022/08/08 06:12:17;;;;;;;4.50;3.30;;;15.00;99.90;;;;;;5116974;28;20040;-81
2022/08/08 06:14:42;;;;;;;9.23;3.75;;;15.20;99.90;;;;;;5116965;28;20035;-81
2022/08/08 06:17:09;;;;;;;6.90;3.40;;;15.40;99.90;;;;;;5116973;28;20119;-79
2022/08/08 06:19:35;;;;;;;6.43;3.40;;;15.60;99.90;;;;;;5115826;28;20051;-82
2022/08/08 06:22:00;;;;;;;6.38;3.63;;;15.80;99.90;;;;;;5116845;28;20043;-79
2022/08/08 06:24:26;;;;;;;6.70;3.40;;;16.00;99.90;;;;;;5117066;28;20051;-81
2022/08/08 06:27:04;;;;;;;5.57;3.25;;;16.10;99.90;;;;;;5116864;28;20444;-81
2022/08/08 06:29:38;;;;;;;7.22;3.90;;;16.30;99.90;;;;;;5117284;28;20055;-80
2022/08/08 06:32:07;;;;;;;8.57;3.90;;;16.50;99.90;;;;;;5117166;28;20043;-80
2022/08/08 06:34:37;;;;;;;6.03;3.65;;;16.60;99.90;;;;;;5116890;28;20062;-78
2022/08/08 06:37:03;;;;;;;9.93;3.70;;;16.80;99.90;;;;;;5115699;28;20054;-80
2022/08/08 06:39:30;;;;;;;6.65;3.70;;;16.80;99.90;;;;;;5115372;28;20096;-79
2022/08/08 06:42:01;;;;;;;7.70;4.03;;;17.00;99.90;;;;;;5116272;28;20442;-80
2022/08/08 06:44:28;;;;;;;6.60;3.90;;;17.00;99.90;;;;;;5116725;28;20048;-79
2022/08/08 06:46:56;;;;;;;8.82;3.50;;;17.10;99.90;;;;;;5116455;28;20044;-80
2022/08/08 06:49:22;;;;;;;6.30;2.70;;;17.30;99.90;;;;;;5116045;28;20457;-81
2022/08/08 06:51:48;;;;;;;12.00;3.73;;;17.50;99.90;;;;;;5116293;28;20079;-79
2022/08/08 06:54:14;;;;;;;7.63;2.63;;;17.60;99.90;;;;;;5116184;28;20039;-80
2022/08/08 06:56:40;;;;;;;7.88;3.13;;;17.80;99.90;;;;;;5116233;28;20046;-78
2022/08/08 06:59:06;;;;;;;6.22;2.22;;;17.90;99.90;;;;;;5116088;28;20040;-80
2022/08/08 07:01:45;;;;;;;5.20;1.90;;;18.20;99.90;;;;;;5116448;28;20467;-80
2022/08/08 07:04:21;;;;;;;6.85;2.38;;;18.30;99.90;;;;;;5116351;28;20398;-79
2022/08/08 07:06:55;;;;;;;7.38;2.60;;;18.40;99.90;;;;;;5116023;28;20047;-81
2022/08/08 07:09:27;;;;;;;7.82;2.28;;;18.50;99.90;;;;;;5116201;28;20127;-79
2022/08/08 07:11:57;;;;;;;6.13;2.10;;;18.70;99.90;;;;;;5115506;28;20043;-79
2022/08/08 07:14:38;;;;;;;5.60;2.17;;;18.70;99.90;;;;;;5115178;28;20051;-79
2022/08/08 07:17:07;;;;;;;7.55;2.33;;;19.00;99.90;;;;;;5115979;28;20043;-78
2022/08/08 07:20:00;;;;;;;5.35;1.77;;;19.10;99.90;;;;;;5115599;28;20100;-81
2022/08/08 07:22:52;;;;;;;5.68;1.92;;;19.30;99.90;;;;;;5115341;27;20454;-78
2022/08/08 07:25:20;;;;;;;7.72;2.00;;;19.40;99.90;;;;;;5115672;28;20088;-80
2022/08/08 07:27:50;;;;;;;6.65;1.85;;;19.50;99.90;;;;;;5115492;28;20048;-80
2022/08/08 07:30:16;;;;;;;6.47;1.80;;;19.60;99.90;;;;;;5115602;28;20070;-79
2022/08/08 07:32:42;;;;;;;6.23;1.90;;;19.70;99.90;;;;;;5115340;28;20475;-81
2022/08/08 07:35:08;;;;;;;6.60;2.10;;;19.70;99.90;;;;;;5116230;28;20043;-79
2022/08/08 07:37:35;;;;;;;6.00;2.00;;;19.80;99.90;;;;;;5115408;28;20126;-80
2022/08/08 07:40:02;;;;;;;5.18;1.85;;;20.00;99.90;;;;;;5115086;28;20518;-79
2022/08/08 07:42:29;;;;;;;6.93;2.35;;;19.80;99.90;;;;;;5115074;28;20089;-78
2022/08/08 07:44:55;;;;;;;4.93;1.77;;;19.80;99.90;;;;;;5115110;28;20047;-79
2022/08/08 07:47:21;;;;;;;6.13;1.57;;;19.80;99.90;;;;;;5115126;28;20055;-78
2022/08/08 07:49:46;;;;;;;5.27;1.60;;;19.90;99.90;;;;;;5115263;28;20119;-79
2022/08/08 07:52:13;;;;;;;5.20;1.90;;;19.80;99.90;;;;;;5114914;28;20048;-79
2022/08/08 07:54:42;;;;;;;6.47;2.08;;;20.10;99.90;;;;;;5114767;28;20054;-79
2022/08/08 07:57:35;;;;;;;4.03;1.60;;;20.10;99.90;;;;;;5114871;28;20047;-79
2022/08/08 08:00:09;;;;;;;4.50;1.80;;;20.30;99.90;;;;;;5115228;28;20139;-80
2022/08/08 08:02:54;;;;;;;4.90;1.73;;;20.40;99.90;;;;;;5115024;28;20031;-81
2022/08/08 08:05:26;;;;;;;4.03;1.42;;;20.40;99.90;;;;;;5114889;28;20127;-81
2022/08/08 08:07:54;;;;;;;4.97;1.50;;;20.50;99.90;;;;;;5113656;28;20044;-80
2022/08/08 08:10:22;;;;;;;3.92;1.58;;;20.60;99.90;;;;;;5114421;28;20604;-81
2022/08/08 08:12:56;;;;;;;6.45;1.67;;;20.60;99.90;;;;;;5114883;28;20043;-80
2022/08/08 08:15:25;;;;;;;5.72;1.65;;;20.70;99.90;;;;;;5114728;28;20079;-80
2022/08/08 08:17:57;;;;;;;4.68;1.52;;;20.80;99.90;;;;;;5114586;28;20075;-79
2022/08/08 08:20:27;;;;;;;4.97;1.65;;;20.90;99.90;;;;;;5114671;28;20040;-81
2022/08/08 08:22:53;;;;;;;6.45;1.90;;;21.00;99.90;;;;;;5113998;27;20096;-81
2022/08/08 08:25:18;;;;;;;5.17;1.30;;;21.00;99.90;;;;;;5114331;28;20047;-81
2022/08/08 08:27:44;;;;;;;5.70;1.60;;;21.00;99.90;;;;;;5114490;28;20044;-80
2022/08/08 08:30:10;;;;;;;3.83;1.50;;;21.10;99.90;;;;;;5114409;28;20061;-81
2022/08/08 08:32:35;;;;;;;5.43;1.40;;;21.10;99.90;;;;;;5114538;28;20040;-80
2022/08/08 08:35:03;;;;;;;6.63;1.73;;;21.10;99.90;;;;;;5114406;28;20054;-80
2022/08/08 08:37:29;;;;;;;4.72;1.60;;;21.00;99.90;;;;;;5113157;28;20176;-80
2022/08/08 08:39:55;;;;;;;5.30;1.77;;;20.90;99.90;;;;;;5114292;28;20059;-80
2022/08/08 08:42:23;;;;;;;3.40;1.30;;;20.90;99.90;;;;;;5114246;28;20422;-81
2022/08/08 08:44:51;;;;;;;4.38;1.63;;;20.80;99.90;;;;;;5114275;28;20130;-82
2022/08/08 08:47:18;;;;;;;4.25;1.35;;;20.80;99.90;;;;;;5114193;28;20120;-80
2022/08/08 08:49:43;;;;;;;7.38;1.48;;;20.90;99.90;;;;;;5114144;28;20048;-80
2022/08/08 08:52:13;;;;;;;6.93;1.53;;;21.00;99.90;;;;;;5114050;28;20050;-81
2022/08/08 08:54:39;;;;;;;5.60;1.58;;;21.10;99.90;;;;;;5114119;28;20070;-79
2022/08/08 08:57:08;;;;;;;5.13;1.30;;;21.20;99.90;;;;;;5114204;28;20044;-80
2022/08/08 08:59:38;;;;;;;6.03;1.48;;;21.20;99.90;;;;;;5113547;28;20054;-80
2022/08/08 09:02:14;;;;;;;3.83;1.35;;;21.40;99.90;;;;;;5114047;28;20093;-79
2022/08/08 09:04:40;;;;;;;4.10;1.33;;;21.50;99.90;;;;;;5114279;28;20471;-79
2022/08/08 09:07:08;;;;;;;5.07;1.60;;;21.80;99.90;;;;;;5114124;28;20122;-81
2022/08/08 09:09:36;;;;;;;2.90;1.20;;;21.80;99.90;;;;;;5114176;28;20044;-80
2022/08/08 09:12:02;;;;;;;6.10;1.55;;;21.90;99.90;;;;;;5113873;28;20368;-80
2022/08/08 09:14:29;;;;;;;4.80;1.30;;;21.80;99.90;;;;;;5113817;28;20399;-81
2022/08/08 09:16:54;;;;;;;;;;;21.80;99.90;;;;;;5113108;28;20047;-79
2022/08/08 09:19:20;;;;;;;4.38;1.20;;;21.60;99.90;;;;;;5113819;28;19920;-81
2022/08/08 09:21:47;;;;;;;3.97;1.40;;;21.70;99.90;;;;;;5113846;28;20051;-79
2022/08/08 09:24:16;;;;;;;4.05;1.30;;;21.90;99.90;;;;;;5113786;28;20051;-81
2022/08/08 09:26:47;;;;;;;2.80;1.10;;;22.20;99.90;;;;;;5113770;28;20043;-80
2022/08/08 09:29:21;;;;;;;3.13;1.10;;;22.40;99.90;;;;;;5113780;28;20050;-81
2022/08/08 09:32:16;;;;;;;3.63;1.30;;;22.60;99.90;;;;;;5113665;28;20503;-80
2022/08/08 09:34:49;;;;;;;5.72;1.40;;;22.90;99.90;;;;;;5097517;28;20572;-80
2022/08/08 09:37:17;;;;;;;2.92;1.25;;;22.70;99.90;;;;;;5117844;28;20040;-79
2022/08/08 09:40:01;;;;;;;3.70;1.10;;;22.60;99.90;;;;;;5117430;28;20036;-81
2022/08/08 09:42:42;;;;;;;3.97;1.20;;;22.60;99.90;;;;;;5117652;28;20044;-79
2022/08/08 09:45:17;;;;;;;2.97;1.20;;;22.50;99.90;;;;;;5117655;28;20083;-79
2022/08/08 09:47:43;;;;;;;3.80;1.23;;;22.40;99.90;;;;;;5117623;28;20395;-80
2022/08/08 09:50:12;;;;;;;4.20;1.40;;;22.30;99.90;;;;;;5118056;28;20048;-80
2022/08/08 09:52:40;;;;;;;3.80;1.20;;;22.00;99.90;;;;;;5116276;28;20039;-81
2022/08/08 09:55:06;;;;;;;4.90;1.30;;;21.90;99.90;;;;;;5117480;28;20153;-78
2022/08/08 09:57:34;;;;;;;3.35;1.15;;;21.80;99.90;;;;;;5117295;28;20387;-81
2022/08/08 10:00:03;;;;;;;2.42;1.13;;;21.70;99.90;;;;;;5117277;28;20454;-80
2022/08/08 10:02:35;;;;;;;5.90;1.27;;;21.70;99.90;;;;;;5116877;27;20051;-80
2022/08/08 10:05:20;;;;;;;3.90;1.13;;;21.70;99.90;;;;;;5117305;28;20127;-80
2022/08/08 10:07:52;;;;;;;4.68;1.20;;;21.70;99.90;;;;;;5115819;28;20499;-81
2022/08/08 10:10:25;;;;;;;4.72;1.15;;;21.70;99.90;;;;;;5117333;28;20122;-81
2022/08/08 10:12:51;;;;;;;3.53;1.13;;;21.70;99.90;;;;;;5116978;28;20085;-81
2022/08/08 10:15:17;;;;;;;3.47;1.20;;;21.60;99.90;;;;;;5117304;28;20048;-80
2022/08/08 10:17:47;;;;;;;2.17;0.90;;;21.70;99.90;;;;;;5116743;28;20153;-80
2022/08/08 10:20:14;;;;;;;3.13;1.17;;;21.90;99.90;;;;;;5117200;28;20118;-81
2022/08/08 10:22:59;;;;;;;4.15;1.20;;;22.00;99.90;;;;;;5118306;28;20065;-80
2022/08/08 10:25:26;;;;;;;6.38;1.15;;;22.50;99.90;;;;;;5117893;27;20441;-80
2022/08/08 10:27:53;;;;;;;3.28;1.33;;;22.80;99.90;;;;;;5117187;28;20052;-80
2022/08/08 10:30:21;;;;;;;5.55;1.10;;;23.00;99.90;;;;;;5117335;28;20047;-80
2022/08/08 10:32:55;;;;;;;2.42;1.00;;;23.20;99.90;;;;;;5116612;28;20044;-82
2022/08/08 10:35:23;;;;;;;3.88;1.17;;;23.30;99.90;;;;;;5116832;27;20122;-80
2022/08/08 10:38:03;;;;;;;2.72;0.98;;;23.30;99.70;;;;;;5115351;28;20126;-81
2022/08/08 10:40:30;;;;;;;4.90;1.15;;;23.40;99.40;;;;;;5117030;28;20073;-80
2022/08/08 10:42:58;;;;;;;2.00;0.90;;;23.50;99.20;;;;;;5116260;28;20047;-82
2022/08/08 10:45:24;;;;;;;3.15;1.15;;;23.50;98.90;;;;;;5116318;28;20146;-80
2022/08/08 10:47:59;;;;;;;2.67;0.87;;;23.60;98.40;;;;;;5114763;28;20503;-80
2022/08/08 10:50:34;;;;;;;2.20;0.82;;;23.70;97.80;;;;;;5116167;28;20713;-79
2022/08/08 10:53:11;;;;;;;3.17;1.00;;;23.70;98.10;;;;;;5115096;28;20073;-81
2022/08/08 10:55:38;;;;;;;4.05;1.20;;;23.70;97.70;;;;;;5116679;28;20047;-81
2022/08/08 10:58:07;;;;;;;2.95;1.00;;;23.40;97.90;;;;;;5115355;28;20058;-79
2022/08/08 11:00:33;;;;;;;3.10;0.90;;;23.30;97.70;;;;;;5114791;28;20051;-79
2022/08/08 11:03:11;;;;;;;1.58;0.68;;;23.30;97.00;;;;;;5115934;28;20082;-79
2022/08/08 11:05:48;;;;;;;1.17;0.68;;;23.30;96.60;;;;;;5116163;28;20463;-82
2022/08/08 11:08:22;;;;;;;2.03;0.75;;;23.30;96.10;;;;;;5116068;28;20065;-81
2022/08/08 11:10:47;;;;;;;4.38;0.90;;;23.30;96.80;;;;;;5116033;28;20069;-81
2022/08/08 11:13:19;;;;;;;3.67;1.00;;;23.40;97.10;;;;;;5116053;28;20468;-80
2022/08/08 11:15:46;;;;;;;2.38;0.75;;;23.70;96.70;;;;;;5115838;28;20047;-81
2022/08/08 11:18:12;;;;;;;;;;;23.80;97.00;;;;;;5116197;27;20131;-82
2022/08/08 11:20:39;;;;;;;2.53;0.80;;;24.10;96.30;;;;;;5114663;28;19928;-81
2022/08/08 11:23:05;;;;;;;2.63;0.90;;;24.40;97.00;;;;;;5115749;28;20050;-81
2022/08/08 11:25:32;;;;;;;2.17;0.80;;;24.40;96.60;;;;;;5115577;28;20044;-80
2022/08/08 11:28:00;;;;;;;3.00;1.00;;;24.50;96.70;;;;;;5115545;28;20044;-79
2022/08/08 11:30:31;;;;;;;2.30;0.90;;;24.70;96.80;;;;;;5115484;28;20085;-80
2022/08/08 11:33:02;;;;;;;2.85;1.05;;;25.00;97.20;;;;;;5115496;28;20036;-81
2022/08/08 11:35:28;;;;;;;2.08;0.85;;;25.00;96.50;;;;;;5115518;28;20050;-80
2022/08/08 11:37:53;;;;;;;2.23;0.87;;;24.70;96.80;;;;;;5115685;28;20126;-83
2022/08/08 11:40:19;;;;;;;2.27;0.90;;;24.40;96.90;;;;;;5115383;28;20043;-81
2022/08/08 11:42:45;;;;;;;2.67;0.93;;;24.10;97.10;;;;;;5114331;28;20050;-82
2022/08/08 11:45:12;;;;;;;4.50;0.90;;;24.10;97.50;;;;;;5115316;28;20085;-80
2022/08/08 11:47:39;;;;;;;7.53;1.20;;;24.30;97.50;;;;;;5115008;28;20380;-82
2022/08/08 11:50:18;;;;;;;3.47;0.93;;;24.60;98.10;;;;;;5115233;28;20105;-81
2022/08/08 11:52:45;;;;;;;2.47;0.90;;;24.80;97.70;;;;;;5115304;28;20039;-81
2022/08/08 11:55:19;;;;;;;4.20;0.90;;;25.10;97.20;;;;;;5115101;28;20492;-80
2022/08/08 11:57:45;;;;;;;3.20;1.05;;;25.10;96.50;;;;;;5114281;28;20039;-82
2022/08/08 12:00:16;;;;;;;2.83;0.93;;;24.90;96.90;;;;;;5114632;28;20054;-78
2022/08/08 12:02:49;;;;;;;2.78;1.00;;;24.60;97.00;;;;;;5114972;28;20376;-80
2022/08/08 12:05:16;;;;;;;3.42;1.00;;;24.50;96.40;;;;;;5115094;28;20097;-79
2022/08/08 12:07:49;;;;;;;;;;;24.40;96.40;;;;;;5115035;28;20135;-81
2022/08/08 12:10:17;;;;;;;4.13;1.20;;;24.40;96.60;;;;;;5114863;28;20385;-79
2022/08/08 12:12:44;;;;;;;3.67;0.93;;;24.30;96.70;;;;;;5114726;28;20097;-79
2022/08/08 12:15:11;;;;;;;3.47;1.00;;;24.20;96.80;;;;;;5113655;28;20054;-79
2022/08/08 12:17:39;;;;;;;17.23;1.05;;;24.00;96.70;;;;;;5114653;28;20047;-81
2022/08/08 12:20:06;;;;;;;1.95;0.80;;;23.90;96.70;;;;;;5114779;28;20479;-79
2022/08/08 12:22:33;;;;;;;2.90;0.80;;;23.70;96.80;;;;;;5114554;28;20046;-79
2022/08/08 12:25:01;;;;;;;2.65;0.90;;;23.50;96.60;;;;;;5114528;28;20073;-78
2022/08/08 12:27:41;;;;;;;2.15;0.80;;;23.40;95.80;;;;;;5114921;28;20138;-79
2022/08/08 12:30:07;;;;;;;2.72;0.75;;;23.40;95.50;;;;;;5114643;28;20041;-79
2022/08/08 12:32:44;;;;;;;2.22;0.80;;;23.50;95.50;;;;;;5114367;28;20046;-81
2022/08/08 12:35:20;;;;;;;;;;;23.70;96.00;;;;;;5114778;28;20040;-81
2022/08/08 12:37:57;;;;;;;2.95;0.80;;;23.90;94.40;;;;;;5114677;28;19919;-80
2022/08/08 12:40:23;;;;;;;2.33;0.90;;;24.00;94.50;;;;;;5114123;28;20523;-79
2022/08/08 12:42:49;;;;;;;3.00;0.88;;;24.10;94.20;;;;;;5114245;28;20047;-78
2022/08/08 12:45:14;;;;;;;2.73;0.93;;;24.40;94.40;;;;;;5114242;28;20043;-80
2022/08/08 12:47:40;;;;;;;2.07;0.70;;;24.70;94.30;;;;;;5113809;28;20495;-80
2022/08/08 12:50:07;;;;;;;3.00;0.97;;;25.00;93.80;;;;;;5114259;28;20297;-81
2022/08/08 12:52:33;;;;;;;2.50;0.90;;;25.30;93.50;;;;;;5112916;28;20039;-81
2022/08/08 12:55:10;;;;;;;2.08;0.80;;;25.50;93.80;;;;;;5113872;28;20047;-83
2022/08/08 12:57:36;;;;;;;2.58;1.00;;;25.30;94.00;;;;;;5114004;28;20555;-83
2022/08/08 13:00:05;;;;;;;4.07;0.90;;;25.10;94.20;;;;;;5114162;28;20035;-82
2022/08/08 13:02:36;;;;;;;5.25;0.93;;;24.90;94.50;;;;;;5114043;28;20044;-81
2022/08/08 13:05:04;;;;;;;3.38;1.00;;;24.70;94.10;;;;;;5114366;28;20044;-82
2022/08/08 13:07:39;;;;;;;3.17;0.82;;;24.50;94.20;;;;;;5113997;28;20055;-82
2022/08/08 13:10:09;;;;;;;3.80;1.00;;;24.30;94.00;;;;;;5115928;28;20048;-81
2022/08/08 13:12:37;;;;;;;2.88;0.90;;;24.20;94.20;;;;;;5118389;28;20058;-82
2022/08/08 13:15:17;;;;;;;2.65;0.85;;;24.20;94.30;;;;;;5117947;28;20044;-79
2022/08/08 13:17:43;;;;;;;2.92;0.70;;;24.10;93.80;;;;;;5118304;28;20040;-82
2022/08/08 13:20:14;;;;;;;2.80;0.70;;;24.00;94.60;;;;;;5117783;28;20407;-83
2022/08/08 13:22:42;;;;;;;1.83;0.60;;;24.00;94.20;;;;;;5118155;28;20083;-80
2022/08/08 13:25:17;;;;;;;2.17;0.80;;;24.20;94.60;;;;;;5118081;28;20051;-82
2022/08/08 13:27:43;;;;;;;2.90;1.10;;;24.20;94.60;;;;;;5117881;28;20476;-84